VLG61SU LIBD-LEBL
Flight info
| Callsign | VLG61SU |
|---|---|
| Flight time | N/A |
| Altitude | 36000 |
| Route | TOPNO DCT DOGUS DCT BATOX/N0445F370 DCT INDUM DCT EPIKU/N0445F360 DCT GINOX DCT KIFMI/N0410F280 DCT ELVOP DCT MUREN DCT CHELY DCT VERSO |
| Aircraft | A320/M-SDE3FGHIRWY/LB1 |
Departure
| Time | 2026-04-30 10:58 |
|---|---|
| Airport | Bari Karol Wojtyła International Airport (LIBD) |
Arrival
| Time | N/A |
|---|---|
| Airport | Josep Tarradellas Barcelona-El Prat Airport (LEBL) |
| Time | Latitude | Longitude | Altitude | Speed | Heading |
|---|---|---|---|---|---|
| 2026-04-30 10:27 | 41.13680 | 16.76389 | 136 ft | 0 kts | 24° |
| 2026-04-30 10:51 | 41.13681 | 16.76394 | 136 ft | 1 kts | 63° |
| 2026-04-30 10:51 | 41.13664 | 16.76414 | 136 ft | 9 kts | 139° |
| 2026-04-30 10:51 | 41.13641 | 16.76478 | 136 ft | 7 kts | 77° |
| 2026-04-30 10:52 | 41.13665 | 16.76526 | 136 ft | 6 kts | 39° |
| 2026-04-30 10:52 | 41.13708 | 16.76555 | 136 ft | 9 kts | 24° |
| 2026-04-30 10:52 | 41.13770 | 16.76550 | 136 ft | 10 kts | 334° |
| 2026-04-30 10:52 | 41.13778 | 16.76459 | 134 ft | 11 kts | 249° |
| 2026-04-30 10:53 | 41.13747 | 16.76347 | 135 ft | 17 kts | 249° |
| 2026-04-30 10:53 | 41.13703 | 16.76193 | 136 ft | 18 kts | 250° |
| 2026-04-30 10:53 | 41.13658 | 16.76038 | 136 ft | 18 kts | 249° |
| 2026-04-30 10:53 | 41.13613 | 16.75877 | 137 ft | 19 kts | 250° |
| 2026-04-30 10:54 | 41.13567 | 16.75714 | 138 ft | 19 kts | 250° |
| 2026-04-30 10:54 | 41.13518 | 16.75547 | 140 ft | 19 kts | 249° |
| 2026-04-30 10:54 | 41.13476 | 16.75397 | 142 ft | 17 kts | 249° |
| 2026-04-30 10:54 | 41.13435 | 16.75249 | 143 ft | 17 kts | 250° |
| 2026-04-30 10:55 | 41.13398 | 16.75119 | 147 ft | 13 kts | 249° |
| 2026-04-30 10:55 | 41.13372 | 16.75029 | 148 ft | 10 kts | 249° |
| 2026-04-30 10:55 | 41.13334 | 16.74895 | 148 ft | 22 kts | 249° |
| 2026-04-30 10:55 | 41.13277 | 16.74694 | 152 ft | 20 kts | 249° |
| 2026-04-30 10:56 | 41.13226 | 16.74510 | 152 ft | 22 kts | 250° |
| 2026-04-30 10:56 | 41.13182 | 16.74358 | 154 ft | 16 kts | 249° |
| 2026-04-30 10:56 | 41.13172 | 16.74233 | 151 ft | 6 kts | 296° |
| 2026-04-30 10:56 | 41.13190 | 16.74194 | 149 ft | 7 kts | 301° |
| 2026-04-30 10:57 | 41.13227 | 16.74122 | 146 ft | 12 kts | 315° |
| 2026-04-30 10:57 | 41.13290 | 16.74084 | 145 ft | 6 kts | 20° |
| 2026-04-30 10:57 | 41.13299 | 16.74103 | 146 ft | 0 kts | 69° |
| 2026-04-30 10:57 | 41.13311 | 16.74144 | 146 ft | 28 kts | 69° |
| 2026-04-30 10:58 | 41.13469 | 16.74709 | 141 ft | 100 kts | 70° |
| 2026-04-30 10:58 | 41.13784 | 16.75819 | 138 ft | 154 kts | 69° |
| 2026-04-30 10:58 | 41.14178 | 16.77230 | 623 ft | 163 kts | 70° |
| 2026-04-30 10:58 | 41.14526 | 16.78664 | 1259 ft | 166 kts | 67° |
| 2026-04-30 10:59 | 41.14954 | 16.80243 | 1437 ft | 194 kts | 64° |
| 2026-04-30 10:59 | 41.15467 | 16.81990 | 1771 ft | 213 kts | 63° |
| 2026-04-30 10:59 | 41.16044 | 16.83926 | 2003 ft | 241 kts | 64° |
| 2026-04-30 10:59 | 41.16671 | 16.86055 | 2627 ft | 251 kts | 65° |
| 2026-04-30 11:00 | 41.17307 | 16.88263 | 3322 ft | 260 kts | 65° |
| 2026-04-30 11:00 | 41.17945 | 16.90507 | 4216 ft | 261 kts | 64° |
| 2026-04-30 11:00 | 41.18971 | 16.92429 | 5070 ft | 253 kts | 32° |
| 2026-04-30 11:00 | 41.20584 | 16.93245 | 5638 ft | 259 kts | 359° |
| 2026-04-30 11:01 | 41.22338 | 16.92920 | 6554 ft | 254 kts | 342° |
| 2026-04-30 11:01 | 41.24035 | 16.92180 | 7522 ft | 260 kts | 340° |
| 2026-04-30 11:01 | 41.25746 | 16.91338 | 8660 ft | 266 kts | 338° |
| 2026-04-30 11:01 | 41.27496 | 16.90454 | 9858 ft | 270 kts | 338° |
| 2026-04-30 11:02 | 41.29125 | 16.89227 | 10847 ft | 274 kts | 317° |
| 2026-04-30 11:02 | 41.30128 | 16.87057 | 11530 ft | 286 kts | 287° |
| 2026-04-30 11:02 | 41.30181 | 16.84323 | 11837 ft | 313 kts | 258° |
| 2026-04-30 11:02 | 41.29541 | 16.81478 | 12383 ft | 327 kts | 255° |
| 2026-04-30 11:03 | 41.28890 | 16.78515 | 13115 ft | 337 kts | 256° |
| 2026-04-30 11:03 | 41.28229 | 16.75510 | 14011 ft | 340 kts | 255° |
| 2026-04-30 11:03 | 41.27520 | 16.72509 | 14716 ft | 340 kts | 255° |
| 2026-04-30 11:04 | 41.26035 | 16.66524 | 16060 ft | 341 kts | 254° |
| 2026-04-30 11:04 | 41.25283 | 16.63524 | 16723 ft | 342 kts | 254° |
| 2026-04-30 11:04 | 41.24533 | 16.60517 | 17377 ft | 344 kts | 255° |
| 2026-04-30 11:04 | 41.23786 | 16.57497 | 18022 ft | 345 kts | 255° |
| 2026-04-30 11:05 | 41.23038 | 16.54458 | 18637 ft | 347 kts | 255° |
| 2026-04-30 11:05 | 41.22290 | 16.51408 | 19169 ft | 348 kts | 255° |
| 2026-04-30 11:05 | 41.21537 | 16.48339 | 19711 ft | 350 kts | 255° |
| 2026-04-30 11:05 | 41.20780 | 16.45254 | 20192 ft | 353 kts | 255° |
| 2026-04-30 11:06 | 41.20013 | 16.42137 | 20715 ft | 356 kts | 255° |
| 2026-04-30 11:06 | 41.19239 | 16.39007 | 21244 ft | 358 kts | 255° |
| 2026-04-30 11:06 | 41.18458 | 16.35855 | 21786 ft | 360 kts | 254° |
| 2026-04-30 11:06 | 41.17670 | 16.32683 | 22298 ft | 363 kts | 254° |
| 2026-04-30 11:07 | 41.16878 | 16.29487 | 22820 ft | 366 kts | 254° |
| 2026-04-30 11:07 | 41.16081 | 16.26272 | 23312 ft | 368 kts | 254° |
| 2026-04-30 11:07 | 41.15276 | 16.23036 | 23783 ft | 370 kts | 254° |
| 2026-04-30 11:07 | 41.14465 | 16.19782 | 24197 ft | 373 kts | 254° |
| 2026-04-30 11:08 | 41.13647 | 16.16512 | 24598 ft | 375 kts | 254° |
| 2026-04-30 11:08 | 41.12822 | 16.13221 | 24984 ft | 377 kts | 254° |
| 2026-04-30 11:08 | 41.11991 | 16.09914 | 25365 ft | 379 kts | 254° |
| 2026-04-30 11:08 | 41.11157 | 16.06589 | 25758 ft | 381 kts | 254° |
| 2026-04-30 11:09 | 41.10320 | 16.03246 | 26120 ft | 383 kts | 254° |
| 2026-04-30 11:09 | 41.09478 | 15.99887 | 26483 ft | 385 kts | 254° |
| 2026-04-30 11:09 | 41.08630 | 15.96511 | 26828 ft | 387 kts | 255° |
| 2026-04-30 11:09 | 41.07778 | 15.93117 | 27145 ft | 390 kts | 254° |
| 2026-04-30 11:10 | 41.06915 | 15.89693 | 27433 ft | 393 kts | 254° |
| 2026-04-30 11:10 | 41.06045 | 15.86245 | 27750 ft | 396 kts | 254° |
| 2026-04-30 11:10 | 41.05169 | 15.82775 | 28080 ft | 398 kts | 254° |
| 2026-04-30 11:10 | 41.04286 | 15.79286 | 28408 ft | 400 kts | 254° |
| 2026-04-30 11:11 | 41.03413 | 15.75835 | 28726 ft | 402 kts | 254° |
| 2026-04-30 11:11 | 41.02606 | 15.72293 | 29040 ft | 402 kts | 260° |
| 2026-04-30 11:11 | 41.02234 | 15.68636 | 29338 ft | 401 kts | 269° |
| 2026-04-30 11:11 | 41.02329 | 15.64945 | 29647 ft | 402 kts | 276° |
| 2026-04-30 11:12 | 41.02554 | 15.61251 | 29933 ft | 404 kts | 275° |
| 2026-04-30 11:12 | 41.02770 | 15.57538 | 30218 ft | 405 kts | 275° |
| 2026-04-30 11:12 | 41.02981 | 15.53808 | 30460 ft | 407 kts | 275° |
| 2026-04-30 11:12 | 41.03192 | 15.50066 | 30691 ft | 408 kts | 275° |
| 2026-04-30 11:13 | 41.03402 | 15.46315 | 30906 ft | 410 kts | 275° |
| 2026-04-30 11:13 | 41.03614 | 15.42544 | 31123 ft | 411 kts | 275° |
| 2026-04-30 11:13 | 41.03825 | 15.38763 | 31370 ft | 411 kts | 275° |
| 2026-04-30 11:13 | 41.04034 | 15.34993 | 31696 ft | 410 kts | 275° |
| 2026-04-30 11:14 | 41.04243 | 15.31232 | 32009 ft | 409 kts | 275° |
| 2026-04-30 11:14 | 41.04451 | 15.27484 | 32299 ft | 408 kts | 275° |
| 2026-04-30 11:14 | 41.04659 | 15.23732 | 32560 ft | 408 kts | 275° |
| 2026-04-30 11:14 | 41.04865 | 15.19980 | 32857 ft | 408 kts | 275° |
| 2026-04-30 11:15 | 41.05069 | 15.16241 | 33164 ft | 407 kts | 275° |
| 2026-04-30 11:15 | 41.05272 | 15.12504 | 33474 ft | 406 kts | 275° |
| 2026-04-30 11:15 | 41.05473 | 15.08778 | 33773 ft | 405 kts | 275° |
| 2026-04-30 11:15 | 41.05671 | 15.05056 | 34069 ft | 404 kts | 275° |
| 2026-04-30 11:16 | 41.05865 | 15.01345 | 34342 ft | 404 kts | 275° |
| 2026-04-30 11:16 | 41.06058 | 14.97635 | 34594 ft | 403 kts | 275° |
| 2026-04-30 11:16 | 41.06251 | 14.93937 | 34841 ft | 402 kts | 275° |
| 2026-04-30 11:16 | 41.06444 | 14.90239 | 35048 ft | 402 kts | 275° |
| 2026-04-30 11:17 | 41.06637 | 14.86547 | 35262 ft | 402 kts | 275° |
| 2026-04-30 11:17 | 41.06825 | 14.82856 | 35478 ft | 401 kts | 275° |
| 2026-04-30 11:17 | 41.07013 | 14.79170 | 35689 ft | 401 kts | 275° |
| 2026-04-30 11:17 | 41.07201 | 14.75490 | 35897 ft | 400 kts | 275° |
| 2026-04-30 11:18 | 41.07389 | 14.71810 | 36090 ft | 400 kts | 275° |
| 2026-04-30 11:18 | 41.07944 | 14.60835 | 36143 ft | 396 kts | 275° |
| 2026-04-30 11:19 | 41.08294 | 14.53555 | 36137 ft | 396 kts | 275° |
| 2026-04-30 11:19 | 41.08643 | 14.46268 | 36129 ft | 396 kts | 275° |
| 2026-04-30 11:20 | 41.08991 | 14.38989 | 36131 ft | 396 kts | 275° |
| 2026-04-30 11:20 | 41.09331 | 14.31704 | 36137 ft | 396 kts | 275° |
| 2026-04-30 11:21 | 41.09665 | 14.24415 | 36129 ft | 396 kts | 275° |
| 2026-04-30 11:21 | 41.10000 | 14.17117 | 36116 ft | 397 kts | 275° |
| 2026-04-30 11:22 | 41.10340 | 14.09809 | 36123 ft | 397 kts | 275° |
| 2026-04-30 11:22 | 41.10670 | 14.02489 | 36120 ft | 398 kts | 275° |
| 2026-04-30 11:23 | 41.10937 | 13.96398 | 36129 ft | 398 kts | 275° |
| 2026-04-30 11:24 | 41.11412 | 13.85401 | 36135 ft | 398 kts | 275° |
| 2026-04-30 11:24 | 41.11725 | 13.78072 | 36142 ft | 398 kts | 275° |
| 2026-04-30 11:25 | 41.12175 | 13.67083 | 36143 ft | 397 kts | 275° |
| 2026-04-30 11:26 | 41.12770 | 13.52458 | 36145 ft | 397 kts | 275° |
| 2026-04-30 11:26 | 41.13057 | 13.45155 | 36135 ft | 396 kts | 275° |
| 2026-04-30 11:27 | 41.13341 | 13.37855 | 36139 ft | 396 kts | 275° |
| 2026-04-30 11:27 | 41.13621 | 13.30558 | 36140 ft | 396 kts | 275° |
| 2026-04-30 11:28 | 41.14037 | 13.19670 | 36140 ft | 396 kts | 275° |
| 2026-04-30 11:29 | 41.14307 | 13.12381 | 36130 ft | 395 kts | 275° |
| 2026-04-30 11:29 | 41.14698 | 13.01455 | 36138 ft | 395 kts | 275° |
| 2026-04-30 11:30 | 41.15074 | 12.90533 | 36137 ft | 395 kts | 275° |
| 2026-04-30 11:31 | 41.15323 | 12.83259 | 36137 ft | 394 kts | 275° |
| 2026-04-30 11:31 | 41.15566 | 12.75995 | 36119 ft | 394 kts | 275° |
| 2026-04-30 11:32 | 41.15808 | 12.68734 | 36127 ft | 394 kts | 275° |
| 2026-04-30 11:32 | 41.16045 | 12.61480 | 36126 ft | 394 kts | 275° |
| 2026-04-30 11:33 | 41.16384 | 12.50602 | 36133 ft | 393 kts | 275° |
| 2026-04-30 11:33 | 41.16607 | 12.43358 | 36124 ft | 393 kts | 275° |
| 2026-04-30 11:34 | 41.16829 | 12.36116 | 36123 ft | 392 kts | 275° |
| 2026-04-30 11:34 | 41.17041 | 12.28882 | 36124 ft | 392 kts | 275° |
| 2026-04-30 11:35 | 41.17246 | 12.21648 | 36131 ft | 392 kts | 275° |
| 2026-04-30 11:35 | 41.17453 | 12.14419 | 36137 ft | 392 kts | 275° |
| 2026-04-30 11:36 | 41.17657 | 12.07188 | 36127 ft | 392 kts | 275° |
| 2026-04-30 11:36 | 41.17850 | 11.99953 | 36127 ft | 392 kts | 275° |
| 2026-04-30 11:37 | 41.18040 | 11.92719 | 36142 ft | 392 kts | 275° |
| 2026-04-30 11:37 | 41.18226 | 11.85483 | 36150 ft | 392 kts | 275° |
| 2026-04-30 11:38 | 41.18402 | 11.78257 | 36147 ft | 392 kts | 275° |
| 2026-04-30 11:38 | 41.18578 | 11.71038 | 36149 ft | 391 kts | 275° |
| 2026-04-30 11:39 | 41.18754 | 11.63821 | 36144 ft | 391 kts | 275° |
| 2026-04-30 11:39 | 41.18927 | 11.56609 | 36125 ft | 391 kts | 275° |
| 2026-04-30 11:40 | 41.19088 | 11.49452 | 36134 ft | 391 kts | 274° |
| 2026-04-30 11:40 | 41.19243 | 11.42248 | 36140 ft | 390 kts | 274° |
| 2026-04-30 11:41 | 41.19391 | 11.35039 | 36143 ft | 390 kts | 274° |
| 2026-04-30 11:41 | 41.19544 | 11.27840 | 36137 ft | 390 kts | 275° |
| 2026-04-30 11:42 | 41.19693 | 11.20654 | 36155 ft | 389 kts | 275° |
| 2026-04-30 11:42 | 41.19832 | 11.13480 | 36158 ft | 388 kts | 274° |
| 2026-04-30 11:43 | 41.19965 | 11.06321 | 36159 ft | 388 kts | 274° |
| 2026-04-30 11:43 | 41.20098 | 10.99165 | 36158 ft | 387 kts | 274° |
| 2026-04-30 11:44 | 41.20223 | 10.92018 | 36156 ft | 387 kts | 274° |
| 2026-04-30 11:44 | 41.20335 | 10.84868 | 36158 ft | 387 kts | 274° |
| 2026-04-30 11:45 | 41.20449 | 10.77770 | 36161 ft | 387 kts | 274° |
| 2026-04-30 11:45 | 41.20567 | 10.70628 | 36159 ft | 387 kts | 274° |
| 2026-04-30 11:46 | 41.20677 | 10.63487 | 36157 ft | 387 kts | 274° |
| 2026-04-30 11:46 | 41.20778 | 10.56350 | 36140 ft | 387 kts | 274° |
| 2026-04-30 11:47 | 41.20871 | 10.49214 | 36142 ft | 387 kts | 274° |
| 2026-04-30 11:47 | 41.20967 | 10.42076 | 36144 ft | 387 kts | 274° |
| 2026-04-30 11:48 | 41.21061 | 10.34938 | 36148 ft | 387 kts | 274° |